sensor_id;sensor_type;location;lat;lon;timestamp;pressure;altitude;pressure_sealevel;temperature;humidity
32759;BME280;19125;52.360;9.974;2023-04-23T00:00:06;86580.19;;;-145.17;58.97
32759;BME280;19125;52.360;9.974;2023-04-23T00:02:33;86564.31;;;-145.17;59.38
32759;BME280;19125;52.360;9.974;2023-04-23T00:05:02;86554.38;;;-145.17;59.40
32759;BME280;19125;52.360;9.974;2023-04-23T00:07:32;86562.31;;;-145.17;59.16
32759;BME280;19125;52.360;9.974;2023-04-23T00:09:58;86562.31;;;-145.17;59.15
32759;BME280;19125;52.360;9.974;2023-04-23T00:12:24;86556.38;;;-145.17;58.97
32759;BME280;19125;52.360;9.974;2023-04-23T00:14:50;86528.59;;;-145.17;59.15
32759;BME280;19125;52.360;9.974;2023-04-23T00:17:15;86562.31;;;-145.17;59.04
32759;BME280;19125;52.360;9.974;2023-04-23T00:19:40;86548.44;;;-145.17;59.13
32759;BME280;19125;52.360;9.974;2023-04-23T00:22:06;86548.44;;;-145.17;59.04
32759;BME280;19125;52.360;9.974;2023-04-23T00:24:31;86552.41;;;-145.17;59.32
32759;BME280;19125;52.360;9.974;2023-04-23T00:27:00;86566.28;;;-145.17;59.38
32759;BME280;19125;52.360;9.974;2023-04-23T00:29:25;86558.34;;;-145.17;59.74
32759;BME280;19125;52.360;9.974;2023-04-23T00:31:50;86560.34;;;-145.17;60.05
32759;BME280;19125;52.360;9.974;2023-04-23T00:34:16;86556.38;;;-145.17;60.18
32759;BME280;19125;52.360;9.974;2023-04-23T00:36:41;86590.09;;;-145.17;60.31
32759;BME280;19125;52.360;9.974;2023-04-23T00:39:06;86556.38;;;-145.17;60.47
32759;BME280;19125;52.360;9.974;2023-04-23T00:41:33;86600.03;;;-145.17;60.41
32759;BME280;19125;52.360;9.974;2023-04-23T00:43:59;86592.09;;;-145.17;60.46
32759;BME280;19125;52.360;9.974;2023-04-23T00:46:24;86568.28;;;-145.17;60.77
32759;BME280;19125;52.360;9.974;2023-04-23T00:48:51;86592.09;;;-145.17;60.49
32759;BME280;19125;52.360;9.974;2023-04-23T00:51:17;86572.25;;;-145.17;60.71
32759;BME280;19125;52.360;9.974;2023-04-23T00:53:42;86576.22;;;-145.17;60.65
32759;BME280;19125;52.360;9.974;2023-04-23T00:56:08;86576.22;;;-145.17;60.78
32759;BME280;19125;52.360;9.974;2023-04-23T00:58:34;86572.25;;;-145.17;60.95
32759;BME280;19125;52.360;9.974;2023-04-23T01:00:59;86536.53;;;-145.17;61.50
32759;BME280;19125;52.360;9.974;2023-04-23T01:03:28;86524.63;;;-145.17;61.64
32759;BME280;19125;52.360;9.974;2023-04-23T01:05:55;86528.59;;;-145.17;61.80
32759;BME280;19125;52.360;9.974;2023-04-23T01:08:22;86528.59;;;-145.17;61.71
32759;BME280;19125;52.360;9.974;2023-04-23T01:10:48;86488.91;;;-145.17;62.31
32759;BME280;19125;52.360;9.974;2023-04-23T01:13:14;86477.00;;;-145.17;62.29
32759;BME280;19125;52.360;9.974;2023-04-23T01:15:40;86431.34;;;-145.17;62.43
32759;BME280;19125;52.360;9.974;2023-04-23T01:18:06;86473.03;;;-145.17;62.55
32759;BME280;19125;52.360;9.974;2023-04-23T01:20:33;86365.84;;;-145.17;62.69
32759;BME280;19125;52.360;9.974;2023-04-23T01:22:58;86338.06;;;-145.17;62.59
32759;BME280;19125;52.360;9.974;2023-04-23T01:25:24;86298.38;;;-145.17;62.64
32759;BME280;19125;52.360;9.974;2023-04-23T01:27:49;86191.22;;;-145.17;63.21
32759;BME280;19125;52.360;9.974;2023-04-23T01:30:15;86147.56;;;-145.17;63.51
32759;BME280;19125;52.360;9.974;2023-04-23T01:32:41;86004.69;;;-145.17;63.45
32759;BME280;19125;52.360;9.974;2023-04-23T01:35:08;85780.47;;;-145.17;63.57
32759;BME280;19125;52.360;9.974;2023-04-23T01:37:34;85599.94;;;-145.17;63.81
32759;BME280;19125;52.360;9.974;2023-04-23T01:40:00;85399.53;;;-145.17;63.93
32759;BME280;19125;52.360;9.974;2023-04-23T01:42:25;85097.97;;;-145.17;64.31
32759;BME280;19125;52.360;9.974;2023-04-23T01:44:51;84764.72;;;-145.17;64.17
32759;BME280;19125;52.360;9.974;2023-04-23T01:47:18;84350.13;;;-145.17;64.52
32759;BME280;19125;52.360;9.974;2023-04-23T01:49:44;83834.47;;;-145.17;64.85
32759;BME280;19125;52.360;9.974;2023-04-23T01:52:09;83471.56;;;-145.17;64.90
32759;BME280;19125;52.360;9.974;2023-04-23T01:54:35;82357.25;;;-145.17;64.89
32759;BME280;19125;52.360;9.974;2023-04-23T01:57:00;82450.41;;;-145.17;64.82
32759;BME280;19125;52.360;9.974;2023-04-23T01:59:27;82632.81;;;-145.17;64.84
32759;BME280;19125;52.360;9.974;2023-04-23T02:01:52;83903.88;;;-145.17;64.15
32759;BME280;19125;52.360;9.974;2023-04-23T02:04:17;84336.25;;;-145.17;64.12
32759;BME280;19125;52.360;9.974;2023-04-23T02:06:46;84619.91;;;-145.17;64.19
32759;BME280;19125;52.360;9.974;2023-04-23T02:09:12;84342.22;;;-145.17;64.64
32759;BME280;19125;52.360;9.974;2023-04-23T02:11:37;84066.50;;;-145.17;64.72
32759;BME280;19125;52.360;9.974;2023-04-23T02:14:04;83493.38;;;-145.17;64.87
32759;BME280;19125;52.360;9.974;2023-04-23T02:16:30;82379.03;;;-145.17;65.26
32759;BME280;19125;52.360;9.974;2023-04-23T02:18:55;80506.03;;;-145.17;65.65
32759;BME280;19125;52.360;9.974;2023-04-23T02:21:24;78942.84;;;-145.17;65.77
32759;BME280;19125;52.360;9.974;2023-04-23T02:23:50;77352.59;;;-145.17;65.75
32759;BME280;19125;52.360;9.974;2023-04-23T02:26:15;74658.69;;;-145.17;66.33
32759;BME280;19125;52.360;9.974;2023-04-23T02:28:41;71112.47;;;-145.17;66.61
32759;BME280;19125;52.360;9.974;2023-04-23T02:31:06;67186.22;;;-145.17;66.93
32759;BME280;19125;52.360;9.974;2023-04-23T02:33:32;62243.91;;;-145.17;66.96
32759;BME280;19125;52.360;9.974;2023-04-23T02:36:01;58458.44;;;-145.17;67.45
32759;BME280;19125;52.360;9.974;2023-04-23T02:38:26;55936.78;;;-145.17;67.25
32759;BME280;19125;52.360;9.974;2023-04-23T02:40:52;56188.88;;;-145.17;67.24
32759;BME280;19125;52.360;9.974;2023-04-23T02:43:17;55180.59;;;-145.17;67.15
32759;BME280;19125;52.360;9.974;2023-04-23T02:45:42;55684.69;;;-145.17;67.07
32759;BME280;19125;52.360;9.974;2023-04-23T02:48:09;58458.44;;;-145.17;66.92
32759;BME280;19125;52.360;9.974;2023-04-23T02:50:35;62496.41;;;-145.17;66.68
32759;BME280;19125;52.360;9.974;2023-04-23T02:53:03;67535.81;;;-145.17;66.24
32759;BME280;19125;52.360;9.974;2023-04-23T02:55:28;71834.09;;;-145.17;65.83
32759;BME280;19125;52.360;9.974;2023-04-23T02:57:57;74013.69;;;-145.17;65.93
32759;BME280;19125;52.360;9.974;2023-04-23T03:00:24;76671.53;;;-145.17;65.51
32759;BME280;19125;52.360;9.974;2023-04-23T03:02:49;77841.69;;;-145.17;65.08
32759;BME280;19125;52.360;9.974;2023-04-23T03:05:15;78917.09;;;-145.17;65.09
32759;BME280;19125;52.360;9.974;2023-04-23T03:07:40;79961.13;;;-145.17;64.92
32759;BME280;19125;52.360;9.974;2023-04-23T03:10:06;80741.84;;;-145.17;64.97
32759;BME280;19125;52.360;9.974;2023-04-23T03:12:32;81092.59;;;-145.17;65.00
32759;BME280;19125;52.360;9.974;2023-04-23T03:14:57;80733.91;;;-145.17;65.00
32759;BME280;19125;52.360;9.974;2023-04-23T03:17:23;80733.91;;;-145.17;65.04
32759;BME280;19125;52.360;9.974;2023-04-23T03:19:48;79644.13;;;-145.17;65.33
32759;BME280;19125;52.360;9.974;2023-04-23T03:22:13;78487.31;;;-145.17;65.54
32759;BME280;19125;52.360;9.974;2023-04-23T03:24:39;76820.00;;;-145.17;65.92
32759;BME280;19125;52.360;9.974;2023-04-23T03:27:04;75133.59;;;-145.17;65.80
32759;BME280;19125;52.360;9.974;2023-04-23T03:29:29;73076.03;;;-145.17;66.05
32759;BME280;19125;52.360;9.974;2023-04-23T03:31:55;70385.00;;;-145.17;66.45
32759;BME280;19125;52.360;9.974;2023-04-23T03:34:20;66785.31;;;-145.17;66.81
32759;BME280;19125;52.360;9.974;2023-04-23T03:36:46;63001.44;;;-145.17;66.81
32759;BME280;19125;52.360;9.974;2023-04-23T03:39:13;60224.53;;;-145.17;67.00
32759;BME280;19125;52.360;9.974;2023-04-23T03:41:38;57449.56;;;-145.17;67.25
32759;BME280;19125;52.360;9.974;2023-04-23T03:44:04;54676.56;;;-145.17;67.39
32759;BME280;19125;52.360;9.974;2023-04-23T03:46:29;52157.31;;;-145.17;67.57
32759;BME280;19125;52.360;9.974;2023-04-23T03:48:54;49136.31;;;-145.17;67.93
32759;BME280;19125;52.360;9.974;2023-04-23T03:51:20;47123.63;;;-145.17;68.05
32759;BME280;19125;52.360;9.974;2023-04-23T03:53:45;45614.78;;;-145.17;68.08
32759;BME280;19125;52.360;9.974;2023-04-23T03:56:10;43855.16;;;-145.17;68.11
32759;BME280;19125;52.360;9.974;2023-04-23T03:58:39;42598.78;;;-145.17;68.09
32759;BME280;19125;52.360;9.974;2023-04-23T04:01:04;40840.53;;;-145.17;68.35
32759;BME280;19125;52.360;9.974;2023-04-23T04:03:29;39083.06;;;-145.17;68.38
32759;BME280;19125;52.360;9.974;2023-04-23T04:05:55;37828.22;;;-145.17;68.48
32759;BME280;19125;52.360;9.974;2023-04-23T04:08:20;36573.75;;;-145.17;68.50
32759;BME280;19125;52.360;9.974;2023-04-23T04:10:46;35319.69;;;-145.17;68.89
32759;BME280;19125;52.360;9.974;2023-04-23T04:13:12;34316.75;;;-145.17;68.72
32759;BME280;19125;52.360;9.974;2023-04-23T04:15:37;33815.38;;;-145.17;68.98
32759;BME280;19125;52.360;9.974;2023-04-23T04:18:04;33314.06;;;-145.17;68.81
32759;BME280;19125;52.360;9.974;2023-04-23T04:20:29;32562.19;;;-145.17;68.91
32759;BME280;19125;52.360;9.974;2023-04-23T04:22:54;31559.94;;;-145.17;68.93
32759;BME280;19125;52.360;9.974;2023-04-23T04:25:20;30557.94;;;-145.17;68.98
32759;BME280;19125;52.360;9.974;2023-04-23T04:27:47;29806.63;;;-145.17;68.84
32759;BME280;19125;52.360;9.974;2023-04-23T04:30:13;29556.22;;;-145.17;69.10
32759;BME280;19125;52.360;9.974;2023-04-23T04:32:39;29556.22;;;-145.17;69.12
32759;BME280;19125;52.360;9.974;2023-04-23T04:35:05;29556.22;;;-145.17;69.24
32759;BME280;19125;52.360;9.974;2023-04-23T04:37:31;29806.63;;;-145.17;69.04
32759;BME280;19125;52.360;9.974;2023-04-23T04:39:56;30057.06;;;-145.17;68.80
32759;BME280;19125;52.360;9.974;2023-04-23T04:42:21;29806.63;;;-145.17;69.07
32759;BME280;19125;52.360;9.974;2023-04-23T04:44:47;30808.44;;;-145.17;68.92
32759;BME280;19125;52.360;9.974;2023-04-23T04:47:12;31309.41;;;-145.17;68.89
32759;BME280;19125;52.360;9.974;2023-04-23T04:49:37;31810.47;;;-145.17;68.71
32759;BME280;19125;52.360;9.974;2023-04-23T04:52:03;31559.94;;;-145.17;68.59
32759;BME280;19125;52.360;9.974;2023-04-23T04:54:28;31058.91;;;-145.17;68.77
32759;BME280;19125;52.360;9.974;2023-04-23T04:56:53;31309.41;;;-145.17;68.61
32759;BME280;19125;52.360;9.974;2023-04-23T04:59:19;31810.47;;;-145.17;68.78
32759;BME280;19125;52.360;9.974;2023-04-23T05:01:44;33815.38;;;-145.17;68.21
32759;BME280;19125;52.360;9.974;2023-04-23T05:04:10;37326.38;;;-145.17;68.08
32759;BME280;19125;52.360;9.974;2023-04-23T05:06:35;41845.16;;;-145.17;67.58
32759;BME280;19125;52.360;9.974;2023-04-23T05:09:01;45363.34;;;-145.17;67.19
32759;BME280;19125;52.360;9.974;2023-04-23T05:11:26;49891.34;;;-145.17;66.82
32759;BME280;19125;52.360;9.974;2023-04-23T05:13:51;53920.63;;;-145.17;66.29
32759;BME280;19125;52.360;9.974;2023-04-23T05:16:17;56188.88;;;-145.17;66.41
32759;BME280;19125;52.360;9.974;2023-04-23T05:18:42;59215.22;;;-145.17;66.50
32759;BME280;19125;52.360;9.974;2023-04-23T05:21:08;60981.69;;;-145.17;66.10
32759;BME280;19125;52.360;9.974;2023-04-23T05:23:34;60981.69;;;-145.17;66.09
32759;BME280;19125;52.360;9.974;2023-04-23T05:26:00;65043.94;;;-145.17;65.85
32759;BME280;19125;52.360;9.974;2023-04-23T05:28:28;69331.63;;;-145.17;65.49
32759;BME280;19125;52.360;9.974;2023-04-23T05:30:55;72722.00;;;-145.17;65.12
32759;BME280;19125;52.360;9.974;2023-04-23T05:33:20;75533.34;;;-145.17;65.00
32759;BME280;19125;52.360;9.974;2023-04-23T05:35:45;77029.84;;;-145.17;64.68
32759;BME280;19125;52.360;9.974;2023-04-23T05:38:11;79396.50;;;-145.17;64.59
32759;BME280;19125;52.360;9.974;2023-04-23T05:40:36;80603.13;;;-145.17;64.11
32759;BME280;19125;52.360;9.974;2023-04-23T05:43:01;81619.81;;;-145.17;64.19
32759;BME280;19125;52.360;9.974;2023-04-23T05:45:27;82192.69;;;-145.17;64.12
32759;BME280;19125;52.360;9.974;2023-04-23T05:47:52;83271.28;;;-145.17;63.81
32759;BME280;19125;52.360;9.974;2023-04-23T05:50:19;83558.81;;;-145.17;64.09
32759;BME280;19125;52.360;9.974;2023-04-23T05:52:44;83826.53;;;-145.17;63.61
32759;BME280;19125;52.360;9.974;2023-04-23T05:55:10;84496.91;;;-145.17;63.52
32759;BME280;19125;52.360;9.974;2023-04-23T05:57:36;84707.19;;;-145.17;63.42
32759;BME280;19125;52.360;9.974;2023-04-23T06:00:03;84913.50;;;-145.17;63.34
32759;BME280;19125;52.360;9.974;2023-04-23T06:02:30;85129.72;;;-145.17;63.12
32759;BME280;19125;52.360;9.974;2023-04-23T06:04:55;85109.88;;;-145.17;63.31
32759;BME280;19125;52.360;9.974;2023-04-23T06:07:20;85159.47;;;-145.17;63.26
32759;BME280;19125;52.360;9.974;2023-04-23T06:09:46;85340.00;;;-145.17;63.22
32759;BME280;19125;52.360;9.974;2023-04-23T06:12:11;85484.84;;;-145.17;63.12
32759;BME280;19125;52.360;9.974;2023-04-23T06:14:36;85734.84;;;-145.17;62.84
32759;BME280;19125;52.360;9.974;2023-04-23T06:17:02;85921.34;;;-145.17;62.63
32759;BME280;19125;52.360;9.974;2023-04-23T06:19:27;85963.03;;;-145.17;62.76
32759;BME280;19125;52.360;9.974;2023-04-23T06:21:53;86080.09;;;-145.17;62.76
32759;BME280;19125;52.360;9.974;2023-04-23T06:24:18;86294.41;;;-145.17;62.42
32759;BME280;19125;52.360;9.974;2023-04-23T06:26:44;86322.19;;;-145.17;62.34
32759;BME280;19125;52.360;9.974;2023-04-23T06:29:10;86254.72;;;-145.17;62.51
32759;BME280;19125;52.360;9.974;2023-04-23T06:31:35;86246.78;;;-145.17;62.57
32759;BME280;19125;52.360;9.974;2023-04-23T06:34:00;86217.03;;;-145.17;62.46
32759;BME280;19125;52.360;9.974;2023-04-23T06:36:26;86213.06;;;-145.17;62.49
32759;BME280;19125;52.360;9.974;2023-04-23T06:38:51;86219.00;;;-145.17;62.44
32759;BME280;19125;52.360;9.974;2023-04-23T06:41:16;86429.34;;;-145.17;62.06
32759;BME280;19125;52.360;9.974;2023-04-23T06:43:42;86445.25;;;-145.17;61.82
32759;BME280;19125;52.360;9.974;2023-04-23T06:46:07;86459.13;;;-145.17;61.78
32759;BME280;19125;52.360;9.974;2023-04-23T06:48:33;86504.78;;;-145.17;61.48
32759;BME280;19125;52.360;9.974;2023-04-23T06:50:58;86488.91;;;-145.17;61.64
32759;BME280;19125;52.360;9.974;2023-04-23T06:53:23;86548.44;;;-145.17;61.35
32759;BME280;19125;52.360;9.974;2023-04-23T06:55:49;86534.53;;;-145.17;61.57
32759;BME280;19125;52.360;9.974;2023-04-23T06:58:16;86524.63;;;-145.17;61.32
32759;BME280;19125;52.360;9.974;2023-04-23T07:00:41;86588.13;;;-145.17;61.02
32759;BME280;19125;52.360;9.974;2023-04-23T07:03:06;86556.38;;;-145.17;61.25
32759;BME280;19125;52.360;9.974;2023-04-23T07:05:32;86552.41;;;-145.17;61.17
32759;BME280;19125;52.360;9.974;2023-04-23T07:07:57;86572.25;;;-145.17;60.90
32759;BME280;19125;52.360;9.974;2023-04-23T07:10:23;86524.63;;;-145.17;61.12
32759;BME280;19125;52.360;9.974;2023-04-23T07:12:49;86512.72;;;-145.17;61.11
32759;BME280;19125;52.360;9.974;2023-04-23T07:15:14;86490.88;;;-145.17;60.67
32759;BME280;19125;52.360;9.974;2023-04-23T07:17:40;86564.31;;;-145.17;59.14
32759;BME280;19125;52.360;9.974;2023-04-23T07:20:06;86528.59;;;-145.17;58.30
32759;BME280;19125;52.360;9.974;2023-04-23T07:22:33;86580.19;;;-145.17;58.31
32759;BME280;19125;52.360;9.974;2023-04-23T07:24:59;86540.50;;;-145.17;58.24
32759;BME280;19125;52.360;9.974;2023-04-23T07:27:24;86544.47;;;-145.17;57.36
32759;BME280;19125;52.360;9.974;2023-04-23T07:29:50;86534.53;;;-145.17;56.71
32759;BME280;19125;52.360;9.974;2023-04-23T07:32:15;86496.84;;;-145.17;56.45
32759;BME280;19125;52.360;9.974;2023-04-23T07:34:41;86500.81;;;-145.17;56.35
32759;BME280;19125;52.360;9.974;2023-04-23T07:37:06;86486.91;;;-145.17;55.79
32759;BME280;19125;52.360;9.974;2023-04-23T07:39:32;86437.28;;;-145.17;55.07
32759;BME280;19125;52.360;9.974;2023-04-23T07:41:57;86423.41;;;-145.17;54.58
32759;BME280;19125;52.360;9.974;2023-04-23T07:44:23;86401.56;;;-145.17;54.75
32759;BME280;19125;52.360;9.974;2023-04-23T07:46:49;86449.19;;;-145.17;54.67
32759;BME280;19125;52.360;9.974;2023-04-23T07:49:14;86397.59;;;-145.17;54.58
32759;BME280;19125;52.360;9.974;2023-04-23T07:51:40;86415.47;;;-145.17;54.73
32759;BME280;19125;52.360;9.974;2023-04-23T07:54:06;86413.47;;;-145.17;54.64
32759;BME280;19125;52.360;9.974;2023-04-23T07:56:32;86391.66;;;-145.17;54.67
32759;BME280;19125;52.360;9.974;2023-04-23T07:58:58;86401.56;;;-145.17;54.59
32759;BME280;19125;52.360;9.974;2023-04-23T08:01:23;86369.81;;;-145.17;54.89
32759;BME280;19125;52.360;9.974;2023-04-23T08:03:49;86318.22;;;-145.17;53.94
32759;BME280;19125;52.360;9.974;2023-04-23T08:06:14;86236.88;;;-145.17;53.27
32759;BME280;19125;52.360;9.974;2023-04-23T08:08:40;86236.88;;;-145.17;52.51
32759;BME280;19125;52.360;9.974;2023-04-23T08:11:06;86189.25;;;-145.17;52.59
32759;BME280;19125;52.360;9.974;2023-04-23T08:13:31;86183.28;;;-145.17;51.23
32759;BME280;19125;52.360;9.974;2023-04-23T08:15:57;86157.50;;;-145.17;50.54
32759;BME280;19125;52.360;9.974;2023-04-23T08:18:22;86097.97;;;-145.17;50.17
32759;BME280;19125;52.360;9.974;2023-04-23T08:20:48;86095.97;;;-145.17;49.12
32759;BME280;19125;52.360;9.974;2023-04-23T08:23:13;86054.31;;;-145.17;49.30
32759;BME280;19125;52.360;9.974;2023-04-23T08:25:38;86004.69;;;-145.17;48.81
32759;BME280;19125;52.360;9.974;2023-04-23T08:28:03;85968.97;;;-145.17;48.01
32759;BME280;19125;52.360;9.974;2023-04-23T08:30:29;85959.06;;;-145.17;47.59
32759;BME280;19125;52.360;9.974;2023-04-23T08:32:55;85925.31;;;-145.17;46.26
32759;BME280;19125;52.360;9.974;2023-04-23T08:35:22;85933.25;;;-145.17;46.16
32759;BME280;19125;52.360;9.974;2023-04-23T08:37:48;85871.75;;;-145.17;45.90
32759;BME280;19125;52.360;9.974;2023-04-23T08:40:13;85905.47;;;-145.17;45.58
32759;BME280;19125;52.360;9.974;2023-04-23T08:42:50;85937.22;;;-145.17;45.59
32759;BME280;19125;52.360;9.974;2023-04-23T08:45:17;85861.84;;;-145.17;44.75
32759;BME280;19125;52.360;9.974;2023-04-23T08:47:43;85877.72;;;-145.17;44.88
32759;BME280;19125;52.360;9.974;2023-04-23T08:50:13;85853.91;;;-145.17;44.13
32759;BME280;19125;52.360;9.974;2023-04-23T08:52:46;85824.13;;;-145.17;44.41
32759;BME280;19125;52.360;9.974;2023-04-23T08:55:14;85851.91;;;-145.17;43.01
32759;BME280;19125;52.360;9.974;2023-04-23T08:57:41;85849.94;;;-145.17;42.47
32759;BME280;19125;52.360;9.974;2023-04-23T09:00:10;85861.84;;;-145.17;42.39
32759;BME280;19125;52.360;9.974;2023-04-23T09:02:39;85861.84;;;-145.17;42.93
32759;BME280;19125;52.360;9.974;2023-04-23T09:05:05;85857.88;;;-145.17;42.19
32759;BME280;19125;52.360;9.974;2023-04-23T09:07:32;85810.25;;;-145.17;42.10
32759;BME280;19125;52.360;9.974;2023-04-23T09:09:58;85770.56;;;-145.17;41.65
32759;BME280;19125;52.360;9.974;2023-04-23T09:12:23;85770.56;;;-145.17;41.63
32759;BME280;19125;52.360;9.974;2023-04-23T09:14:49;85766.59;;;-145.17;41.06
32759;BME280;19125;52.360;9.974;2023-04-23T09:17:16;85738.81;;;-145.17;40.82
32759;BME280;19125;52.360;9.974;2023-04-23T09:19:42;85687.22;;;-145.17;41.12
32759;BME280;19125;52.360;9.974;2023-04-23T09:22:09;85699.13;;;-145.17;41.07
32759;BME280;19125;52.360;9.974;2023-04-23T09:24:34;85667.38;;;-145.17;40.35
32759;BME280;19125;52.360;9.974;2023-04-23T09:26:59;85667.38;;;-145.17;39.61
32759;BME280;19125;52.360;9.974;2023-04-23T09:29:25;85655.47;;;-145.17;39.52
32759;BME280;19125;52.360;9.974;2023-04-23T09:31:55;85621.75;;;-145.17;39.28
32759;BME280;19125;52.360;9.974;2023-04-23T09:34:22;85611.81;;;-145.17;38.61
32759;BME280;19125;52.360;9.974;2023-04-23T09:36:50;85607.84;;;-145.17;38.39
32759;BME280;19125;52.360;9.974;2023-04-23T09:39:17;85597.94;;;-145.17;38.33
32759;BME280;19125;52.360;9.974;2023-04-23T09:41:44;85570.16;;;-145.17;37.46
32759;BME280;19125;52.360;9.974;2023-04-23T09:44:16;85592.00;;;-145.17;37.09
32759;BME280;19125;52.360;9.974;2023-04-23T09:46:43;85593.97;;;-145.17;36.77
32759;BME280;19125;52.360;9.974;2023-04-23T09:49:09;85544.38;;;-145.17;36.86
32759;BME280;19125;52.360;9.974;2023-04-23T09:54:21;85548.34;;;-145.17;36.83
32759;BME280;19125;52.360;9.974;2023-04-23T09:56:52;85522.53;;;-145.17;36.71
32759;BME280;19125;52.360;9.974;2023-04-23T09:59:30;85488.81;;;-145.17;36.55
32759;BME280;19125;52.360;9.974;2023-04-23T10:01:56;85496.75;;;-145.17;36.54
32759;BME280;19125;52.360;9.974;2023-04-23T10:04:25;85453.09;;;-145.17;36.47
32759;BME280;19125;52.360;9.974;2023-04-23T10:06:55;85461.03;;;-145.17;36.41
32759;BME280;19125;52.360;9.974;2023-04-23T10:09:21;85421.34;;;-145.17;35.91
32759;BME280;19125;52.360;9.974;2023-04-23T10:11:53;85375.72;;;-145.17;35.81
32759;BME280;19125;52.360;9.974;2023-04-23T10:14:20;85371.75;;;-145.17;35.94
32759;BME280;19125;52.360;9.974;2023-04-23T10:16:46;85391.59;;;-145.17;35.42
32759;BME280;19125;52.360;9.974;2023-04-23T10:19:13;85365.81;;;-145.17;35.12
32759;BME280;19125;52.360;9.974;2023-04-23T10:21:40;85353.91;;;-145.17;34.74
32759;BME280;19125;52.360;9.974;2023-04-23T10:24:09;85373.75;;;-145.17;33.89
32759;BME280;19125;52.360;9.974;2023-04-23T10:26:37;85421.34;;;-145.17;33.69
32759;BME280;19125;52.360;9.974;2023-04-23T10:29:08;85449.13;;;-145.17;33.93
32759;BME280;19125;52.360;9.974;2023-04-23T10:31:36;85449.13;;;-145.17;34.12
32759;BME280;19125;52.360;9.974;2023-04-23T10:34:03;85401.53;;;-145.17;34.09
32759;BME280;19125;52.360;9.974;2023-04-23T10:36:32;85417.38;;;-145.17;33.41
32759;BME280;19125;52.360;9.974;2023-04-23T10:38:57;85357.88;;;-145.17;33.90
32759;BME280;19125;52.360;9.974;2023-04-23T10:41:34;85353.91;;;-145.17;33.59
32759;BME280;19125;52.360;9.974;2023-04-23T10:44:02;85300.34;;;-145.17;33.69
32759;BME280;19125;52.360;9.974;2023-04-23T10:46:28;85300.34;;;-145.17;33.25
32759;BME280;19125;52.360;9.974;2023-04-23T10:49:13;85288.44;;;-145.17;33.66
32759;BME280;19125;52.360;9.974;2023-04-23T10:51:40;85254.72;;;-145.17;32.44
32759;BME280;19125;52.360;9.974;2023-04-23T10:54:10;85258.69;;;-145.17;32.22
32759;BME280;19125;52.360;9.974;2023-04-23T10:56:38;85290.41;;;-145.17;32.60
32759;BME280;19125;52.360;9.974;2023-04-23T10:59:16;85306.28;;;-145.17;32.42
32759;BME280;19125;52.360;9.974;2023-04-23T11:01:54;85266.59;;;-145.17;32.85
32759;BME280;19125;52.360;9.974;2023-04-23T11:04:23;85234.88;;;-145.17;31.76
32759;BME280;19125;52.360;9.974;2023-04-23T11:06:52;85219.00;;;-145.17;31.71
32759;BME280;19125;52.360;9.974;2023-04-23T11:09:45;85219.00;;;-145.17;32.43
32759;BME280;19125;52.360;9.974;2023-04-23T11:12:31;85187.25;;;-145.17;31.94
32759;BME280;19125;52.360;9.974;2023-04-23T11:14:57;85139.63;;;-145.17;31.72
32759;BME280;19125;52.360;9.974;2023-04-23T11:20:03;85054.34;;;-145.17;32.28
32759;BME280;19125;52.360;9.974;2023-04-23T11:22:38;85068.22;;;-145.17;31.49
32759;BME280;19125;52.360;9.974;2023-04-23T11:25:08;85028.53;;;-145.17;30.99
32759;BME280;19125;52.360;9.974;2023-04-23T11:27:37;85024.56;;;-145.17;30.63
32759;BME280;19125;52.360;9.974;2023-04-23T11:30:03;85018.63;;;-145.17;29.86
32759;BME280;19125;52.360;9.974;2023-04-23T11:32:29;85004.75;;;-145.17;30.16
32759;BME280;19125;52.360;9.974;2023-04-23T11:34:56;84992.84;;;-145.17;31.09
32759;BME280;19125;52.360;9.974;2023-04-23T11:37:23;84963.09;;;-145.17;30.55
32759;BME280;19125;52.360;9.974;2023-04-23T11:39:48;84988.88;;;-145.17;29.66
32759;BME280;19125;52.360;9.974;2023-04-23T11:42:16;85052.34;;;-145.17;29.70
32759;BME280;19125;52.360;9.974;2023-04-23T11:44:45;85092.03;;;-145.17;30.67
32759;BME280;19125;52.360;9.974;2023-04-23T11:47:13;85113.84;;;-145.17;30.79
32759;BME280;19125;52.360;9.974;2023-04-23T11:49:40;85088.06;;;-145.17;30.47
32759;BME280;19125;52.360;9.974;2023-04-23T11:52:09;85028.53;;;-145.17;30.91
32759;BME280;19125;52.360;9.974;2023-04-23T11:54:35;84945.22;;;-145.17;29.56
32759;BME280;19125;52.360;9.974;2023-04-23T11:57:01;84921.41;;;-145.17;29.58
32759;BME280;19125;52.360;9.974;2023-04-23T11:59:29;84834.13;;;-145.17;28.91
32759;BME280;19125;52.360;9.974;2023-04-23T12:01:56;84774.63;;;-145.17;28.13
32759;BME280;19125;52.360;9.974;2023-04-23T12:04:31;84719.09;;;-145.17;28.14
32759;BME280;19125;52.360;9.974;2023-04-23T12:06:58;84740.91;;;-145.17;27.66
32759;BME280;19125;52.360;9.974;2023-04-23T12:09:25;84826.19;;;-145.17;27.96
32759;BME280;19125;52.360;9.974;2023-04-23T12:11:51;84834.13;;;-145.17;28.13
32759;BME280;19125;52.360;9.974;2023-04-23T12:14:18;84897.63;;;-145.17;28.05
32759;BME280;19125;52.360;9.974;2023-04-23T12:16:46;84887.69;;;-145.17;28.54
32759;BME280;19125;52.360;9.974;2023-04-23T12:19:28;84897.63;;;-145.17;28.61
32759;BME280;19125;52.360;9.974;2023-04-23T12:22:00;84919.44;;;-145.17;28.91
32759;BME280;19125;52.360;9.974;2023-04-23T12:24:28;84953.16;;;-145.17;29.13
32759;BME280;19125;52.360;9.974;2023-04-23T12:26:56;84973.00;;;-145.17;29.46
32759;BME280;19125;52.360;9.974;2023-04-23T12:29:23;84897.63;;;-145.17;29.33
32759;BME280;19125;52.360;9.974;2023-04-23T12:31:50;84834.13;;;-145.17;28.97
32759;BME280;19125;52.360;9.974;2023-04-23T12:34:17;84832.16;;;-145.17;28.45
32759;BME280;19125;52.360;9.974;2023-04-23T12:36:45;84776.59;;;-145.17;28.63
32759;BME280;19125;52.360;9.974;2023-04-23T12:39:30;84780.56;;;-145.17;27.97
32759;BME280;19125;52.360;9.974;2023-04-23T12:42:00;84768.69;;;-145.17;27.91